createdAt,value
2022-12-01T00:01:20.681Z,70.42
2022-12-01T00:03:47.500Z,69.79
2022-12-01T00:06:16.923Z,70.64
2022-12-01T00:09:03.883Z,70.90
2022-12-01T00:11:30.642Z,71.22
2022-12-01T00:13:57.250Z,72.09
2022-12-01T00:16:24.111Z,71.31
2022-12-01T00:18:52.550Z,70.80
2022-12-01T00:21:21.662Z,71.11
2022-12-01T00:23:51.151Z,71.71
2022-12-01T00:26:18.850Z,70.39
2022-12-01T00:28:59.007Z,70.14
2022-12-01T00:31:27.242Z,71.15
2022-12-01T00:33:54.831Z,70.57
2022-12-01T00:36:22.521Z,70.99
2022-12-01T00:38:52.533Z,70.09
2022-12-01T00:41:19.516Z,70.56
2022-12-01T00:43:49.198Z,70.19
2022-12-01T00:46:16.041Z,69.93
2022-12-01T00:48:42.647Z,70.62
2022-12-01T00:51:09.317Z,69.91
2022-12-01T00:53:36.004Z,68.90
2022-12-01T00:56:02.564Z,69.20
2022-12-01T00:58:29.168Z,70.05
2022-12-01T01:01:01.414Z,69.11
2022-12-01T01:03:29.536Z,68.84
2022-12-01T01:05:56.456Z,69.38
2022-12-01T01:08:23.230Z,69.73
2022-12-01T01:10:49.904Z,71.29
2022-12-01T01:13:16.874Z,69.58
2022-12-01T01:15:43.499Z,70.81
2022-12-01T01:18:11.832Z,71.08
2022-12-01T01:20:38.442Z,69.36
2022-12-01T01:23:05.019Z,69.90
2022-12-01T01:25:33.308Z,69.95
2022-12-01T01:28:00.140Z,70.08
2022-12-01T01:30:27.317Z,70.48
2022-12-01T01:32:54.233Z,69.37
2022-12-01T01:35:21.312Z,71.39
2022-12-01T01:37:48.043Z,70.61
2022-12-01T01:40:14.776Z,69.47
2022-12-01T01:42:41.384Z,69.85
2022-12-01T01:45:21.300Z,69.03
2022-12-01T01:47:50.231Z,68.57
2022-12-01T01:50:20.132Z,68.71
2022-12-01T01:52:50.267Z,70.43
2022-12-01T01:55:17.808Z,70.12
2022-12-01T01:57:45.629Z,70.26
2022-12-01T02:00:15.746Z,69.51
2022-12-01T02:02:45.453Z,70.65
2022-12-01T02:05:25.152Z,69.94
2022-12-01T02:07:55.275Z,69.57
2022-12-01T02:10:30.900Z,69.78
2022-12-01T02:13:16.387Z,68.95
2022-12-01T02:15:51.931Z,68.77
2022-12-01T02:18:25.432Z,69.25
2022-12-01T02:21:07.538Z,68.31
2022-12-01T02:24:06.750Z,68.42
2022-12-01T02:26:55.775Z,68.22
2022-12-01T02:29:56.738Z,68.14
2022-12-01T02:33:02.444Z,67.65
2022-12-01T02:35:50.102Z,67.01
2022-12-01T02:38:23.950Z,66.83
2022-12-01T02:41:04.030Z,67.74
2022-12-01T02:43:47.153Z,67.83
2022-12-01T02:46:49.390Z,67.31
2022-12-01T02:49:19.518Z,67.52
2022-12-01T02:51:48.540Z,67.68
2022-12-01T02:54:15.721Z,67.96
2022-12-01T02:56:45.296Z,67.66
2022-12-01T02:59:13.986Z,66.67
2022-12-01T03:02:07.318Z,67.34
2022-12-01T03:04:43.659Z,67.44
2022-12-01T03:07:19.379Z,67.32
2022-12-01T03:09:58.518Z,67.19
2022-12-01T03:12:50.568Z,67.11
2022-12-01T03:15:30.679Z,66.57
2022-12-01T03:18:34.885Z,66.65
2022-12-01T03:21:06.213Z,67.45
2022-12-01T03:23:36.434Z,68.49
2022-12-01T03:26:07.062Z,67.55
2022-12-01T03:28:40.489Z,67.42
2022-12-01T03:31:12.272Z,66.50
2022-12-01T03:33:52.261Z,67.20
2022-12-01T03:36:32.298Z,66.74
2022-12-01T03:39:04.791Z,67.35
2022-12-01T03:41:46.328Z,66.90
2022-12-01T03:44:21.280Z,66.52
2022-12-01T03:46:58.475Z,67.63
2022-12-01T03:49:26.857Z,67.71
2022-12-01T03:52:06.815Z,67.44
2022-12-01T03:55:02.677Z,67.01
2022-12-01T03:57:57.572Z,67.56
2022-12-01T04:00:24.680Z,66.92
2022-12-01T04:02:59.873Z,66.58
2022-12-01T04:05:27.129Z,67.02
2022-12-01T04:07:54.258Z,66.67
2022-12-01T04:10:21.337Z,67.69
2022-12-01T04:12:47.936Z,67.80
2022-12-01T04:15:15.577Z,67.09
2022-12-01T04:17:44.294Z,67.00
2022-12-01T04:20:16.531Z,66.86
2022-12-01T04:22:43.717Z,68.92
2022-12-01T04:25:10.663Z,68.42
2022-12-01T04:27:38.146Z,68.49
2022-12-01T04:30:06.435Z,68.76
2022-12-01T04:32:38.064Z,68.15
2022-12-01T04:35:04.804Z,68.76
2022-12-01T04:37:31.422Z,68.85
2022-12-01T04:39:58.024Z,69.38
2022-12-01T04:42:24.628Z,69.37
2022-12-01T04:44:51.196Z,69.75
2022-12-01T04:47:17.792Z,70.32
2022-12-01T04:49:44.448Z,69.24
2022-12-01T04:52:11.051Z,68.83
2022-12-01T04:54:37.924Z,69.30
2022-12-01T04:57:04.540Z,68.40
2022-12-01T04:59:31.130Z,68.75
2022-12-01T05:01:57.836Z,67.52
2022-12-01T05:04:24.531Z,68.48
2022-12-01T05:06:53.732Z,68.60
2022-12-01T05:09:21.361Z,69.40
2022-12-01T05:11:48.253Z,69.27
2022-12-01T05:14:15.059Z,70.13
2022-12-01T05:16:41.750Z,69.21
2022-12-01T05:19:27.615Z,69.59
2022-12-01T05:21:54.334Z,69.83
2022-12-01T05:24:21.810Z,69.32
2022-12-01T05:26:48.883Z,67.45
2022-12-01T05:29:15.495Z,67.59
2022-12-01T05:31:42.245Z,68.02
2022-12-01T05:34:08.990Z,69.01
2022-12-01T05:36:36.487Z,68.95
2022-12-01T05:39:04.090Z,68.82
2022-12-01T05:41:30.777Z,67.94
2022-12-01T05:43:57.391Z,69.98
2022-12-01T05:46:24.201Z,68.77
2022-12-01T05:48:51.186Z,69.43
2022-12-01T05:51:17.821Z,69.14
2022-12-01T05:53:44.701Z,69.61
2022-12-01T05:56:11.378Z,70.17
2022-12-01T05:58:38.059Z,69.82
2022-12-01T06:01:04.833Z,68.55
2022-12-01T06:03:31.479Z,69.03
2022-12-01T06:05:58.073Z,67.97
2022-12-01T06:08:24.765Z,68.03
2022-12-01T06:10:51.700Z,69.43
2022-12-01T06:13:18.548Z,68.48
2022-12-01T06:15:45.157Z,68.11
2022-12-01T06:18:11.850Z,68.99
2022-12-01T06:20:38.440Z,68.18
2022-12-01T06:23:05.055Z,69.39
2022-12-01T06:25:31.901Z,68.84
2022-12-01T06:27:58.932Z,69.93
2022-12-01T06:30:26.196Z,68.43
2022-12-01T06:32:52.986Z,67.75
2022-12-01T06:35:19.659Z,68.38
2022-12-01T06:37:46.339Z,68.18
2022-12-01T06:40:13.101Z,66.81
2022-12-01T06:42:39.791Z,67.81
2022-12-01T06:45:06.689Z,66.91
2022-12-01T06:47:33.395Z,68.18
2022-12-01T06:50:00.189Z,67.79
2022-12-01T06:52:26.841Z,67.66
2022-12-01T06:54:53.432Z,66.65
2022-12-01T06:57:20.236Z,68.06
2022-12-01T06:59:47.703Z,67.68
2022-12-01T07:02:14.945Z,68.91
2022-12-01T07:04:41.578Z,69.56
2022-12-01T07:07:08.396Z,70.26
2022-12-01T07:09:35.219Z,67.67
2022-12-01T07:12:01.863Z,69.25
2022-12-01T07:14:28.553Z,69.39
2022-12-01T07:16:55.221Z,69.22
2022-12-01T07:19:22.192Z,68.31
2022-12-01T07:21:48.813Z,68.75
2022-12-01T07:24:15.558Z,67.69
2022-12-01T07:26:43.067Z,68.27
2022-12-01T07:29:10.516Z,67.65
2022-12-01T07:31:38.342Z,68.26
2022-12-01T07:34:06.143Z,68.04
2022-12-01T07:36:33.308Z,69.04
2022-12-01T07:39:00.611Z,68.45
2022-12-01T07:41:27.167Z,69.89
2022-12-01T07:43:55.239Z,69.09
2022-12-01T07:46:24.840Z,70.01
2022-12-01T07:48:52.580Z,70.24
2022-12-01T07:51:20.517Z,68.36
2022-12-01T07:53:49.324Z,68.91
2022-12-01T07:56:17.086Z,68.31
2022-12-01T07:58:44.262Z,70.18
2022-12-01T08:01:13.776Z,70.13
2022-12-01T08:03:41.373Z,69.60
2022-12-01T08:06:08.945Z,69.50
2022-12-01T08:08:37.378Z,69.93
2022-12-01T08:11:11.062Z,70.78
2022-12-01T08:13:38.938Z,68.68
2022-12-01T08:16:07.366Z,68.85
2022-12-01T08:18:35.809Z,69.20
2022-12-01T08:21:03.326Z,70.12
2022-12-01T08:23:30.079Z,70.40
2022-12-01T08:26:01.072Z,70.43
2022-12-01T08:28:28.266Z,69.62
2022-12-01T08:30:54.891Z,69.34
2022-12-01T08:33:21.749Z,68.55
2022-12-01T08:35:48.361Z,69.16
2022-12-01T08:38:15.777Z,70.13
2022-12-01T08:40:42.325Z,70.11
2022-12-01T08:43:12.339Z,68.54
2022-12-01T08:45:45.402Z,67.75
2022-12-01T08:48:11.946Z,68.18
2022-12-01T08:50:38.575Z,68.16
2022-12-01T08:53:05.132Z,66.99
2022-12-01T08:55:31.761Z,66.88
2022-12-01T08:57:58.323Z,67.82
2022-12-01T09:00:25.290Z,67.35
2022-12-01T09:02:51.940Z,67.92
2022-12-01T09:05:18.536Z,67.51
2022-12-01T09:08:05.111Z,68.23
2022-12-01T09:10:31.698Z,68.20
2022-12-01T09:12:58.262Z,67.88
2022-12-01T09:15:24.903Z,69.17
2022-12-01T09:17:51.463Z,68.98
2022-12-01T09:20:18.292Z,69.24
2022-12-01T09:22:44.861Z,69.97
2022-12-01T09:25:14.683Z,68.51
2022-12-01T09:27:41.437Z,68.30
2022-12-01T09:30:08.586Z,68.30
2022-12-01T09:32:35.193Z,67.76
2022-12-01T09:35:01.844Z,68.48
2022-12-01T09:37:28.450Z,70.06
2022-12-01T09:39:55.836Z,69.73
2022-12-01T09:42:30.809Z,70.20
2022-12-01T09:45:04.984Z,71.23
2022-12-01T09:47:35.417Z,70.78
2022-12-01T09:50:15.954Z,70.01
2022-12-01T09:52:53.221Z,69.77
2022-12-01T09:55:23.344Z,70.01
2022-12-01T09:57:53.002Z,70.35
2022-12-01T10:00:23.946Z,69.56
2022-12-01T10:03:09.693Z,70.37
2022-12-01T10:09:05.430Z,69.96
2022-12-01T10:11:36.093Z,69.82
2022-12-01T10:14:04.454Z,71.37
2022-12-01T10:16:39.597Z,70.33
2022-12-01T10:19:24.753Z,69.20
2022-12-01T10:22:17.989Z,71.56
2022-12-01T10:24:53.185Z,70.51
2022-12-01T10:27:57.082Z,69.99
2022-12-01T10:30:24.267Z,68.57
2022-12-01T10:33:01.110Z,70.68
2022-12-01T10:35:36.015Z,69.74
2022-12-01T10:38:06.767Z,69.57
2022-12-01T10:40:36.349Z,71.23
2022-12-01T10:43:03.248Z,70.55
2022-12-01T10:45:34.520Z,70.42
2022-12-01T10:48:08.740Z,71.06
2022-12-01T10:50:36.408Z,70.35
2022-12-01T10:53:03.961Z,71.19
2022-12-01T10:55:34.663Z,71.84
2022-12-01T10:58:12.439Z,70.69
2022-12-01T11:00:58.944Z,71.95
2022-12-01T11:03:30.299Z,70.64
2022-12-01T11:05:59.666Z,72.28
2022-12-01T11:08:50.432Z,71.76
2022-12-01T11:11:26.398Z,70.27
2022-12-01T11:13:54.595Z,71.17
2022-12-01T11:16:44.383Z,72.31
2022-12-01T11:19:30.049Z,70.52
2022-12-01T11:22:20.583Z,71.19
2022-12-01T11:25:01.984Z,71.06
2022-12-01T11:27:34.967Z,69.73
2022-12-01T11:30:06.491Z,71.35
2022-12-01T11:32:38.532Z,71.01
2022-12-01T11:35:11.013Z,71.08
2022-12-01T11:37:50.425Z,70.73
2022-12-01T11:40:31.425Z,71.41
2022-12-01T11:43:04.151Z,72.40
2022-12-01T11:45:35.131Z,70.71
2022-12-01T11:48:15.412Z,70.51
2022-12-01T11:50:44.022Z,69.84
2022-12-01T11:53:32.632Z,70.03
2022-12-01T11:56:20.708Z,70.25
2022-12-01T11:58:49.023Z,71.62
2022-12-01T12:01:24.759Z,71.67
2022-12-01T12:04:05.366Z,70.45
2022-12-01T12:06:40.249Z,70.80
2022-12-01T12:09:23.441Z,71.55
2022-12-01T12:12:10.224Z,71.50
2022-12-01T12:14:51.889Z,70.51
2022-12-01T12:17:18.417Z,70.83
2022-12-01T12:20:08.530Z,69.19
2022-12-01T12:22:55.721Z,69.92
2022-12-01T12:25:47.970Z,70.60
2022-12-01T12:28:26.763Z,70.30
2022-12-01T12:31:04.958Z,70.45
2022-12-01T12:33:54.587Z,70.24
2022-12-01T12:36:37.647Z,71.42
2022-12-01T12:39:19.336Z,70.50
2022-12-01T12:41:47.869Z,69.93
2022-12-01T12:44:17.395Z,68.39
2022-12-01T12:46:57.430Z,68.13
2022-12-01T12:49:50.540Z,69.86
2022-12-01T12:52:23.999Z,69.05
2022-12-01T12:54:57.264Z,70.66
2022-12-01T12:57:34.894Z,69.83
2022-12-01T13:00:13.566Z,68.74
2022-12-01T13:02:55.812Z,69.47
2022-12-01T13:05:49.338Z,69.51
2022-12-01T13:08:36.977Z,68.83
2022-12-01T13:11:13.033Z,68.03
2022-12-01T13:13:57.371Z,68.45
2022-12-01T13:16:41.721Z,68.50
2022-12-01T13:19:30.939Z,70.24
2022-12-01T13:21:59.754Z,69.32
2022-12-01T13:24:30.127Z,68.63
2022-12-01T13:27:01.966Z,69.02
2022-12-01T13:29:32.540Z,69.34
2022-12-01T13:31:59.665Z,70.12
2022-12-01T13:34:36.350Z,69.17
2022-12-01T13:37:03.106Z,70.31
2022-12-01T13:39:36.225Z,70.37
2022-12-01T13:42:18.931Z,70.26
2022-12-01T13:44:54.019Z,70.70
2022-12-01T13:47:20.572Z,70.08
2022-12-01T13:49:52.201Z,68.88
2022-12-01T13:52:21.933Z,69.74
2022-12-01T13:55:09.873Z,70.06
2022-12-01T13:57:37.998Z,67.73
2022-12-01T14:00:27.913Z,68.80
2022-12-01T14:03:13.057Z,70.01
2022-12-01T14:05:39.708Z,69.46
2022-12-01T14:08:37.888Z,69.13
2022-12-01T14:11:25.558Z,69.77
2022-12-01T14:13:56.663Z,69.14
2022-12-01T14:16:24.233Z,69.84
2022-12-01T14:18:57.556Z,70.87
2022-12-01T14:21:53.493Z,68.35
2022-12-01T14:24:24.813Z,69.32
2022-12-01T14:26:52.720Z,69.30
2022-12-01T14:29:29.283Z,69.59
2022-12-01T14:32:03.975Z,70.02
2022-12-01T14:34:34.205Z,68.44
2022-12-01T14:37:09.711Z,67.39
2022-12-01T14:39:43.280Z,68.27
2022-12-01T14:42:47.246Z,69.01
2022-12-01T14:45:20.444Z,68.63
2022-12-01T14:48:12.621Z,67.67
2022-12-01T14:50:46.623Z,69.21
2022-12-01T14:53:23.571Z,68.15
2022-12-01T14:56:00.059Z,69.40
2022-12-01T14:58:31.916Z,68.84
2022-12-01T15:01:13.510Z,70.01
2022-12-01T15:03:43.699Z,70.01
2022-12-01T15:06:15.936Z,71.80
2022-12-01T15:08:53.414Z,71.05
2022-12-01T15:11:30.354Z,71.96
2022-12-01T15:13:57.902Z,71.02
2022-12-01T15:16:32.284Z,69.91
2022-12-01T15:18:59.186Z,69.08
2022-12-01T15:21:27.159Z,68.91
2022-12-01T15:24:03.281Z,70.14
2022-12-01T15:26:32.195Z,70.62
2022-12-01T15:29:15.682Z,68.47
2022-12-01T15:31:45.014Z,67.89
2022-12-01T15:34:17.211Z,67.96
2022-12-01T15:36:44.516Z,68.57
2022-12-01T15:39:16.059Z,68.16
2022-12-01T15:41:44.710Z,67.50
2022-12-01T15:44:20.788Z,67.78
2022-12-01T15:46:47.958Z,67.13
2022-12-01T15:49:29.714Z,66.83
2022-12-01T15:52:12.503Z,67.92
2022-12-01T15:54:39.774Z,68.37
2022-12-01T15:57:07.220Z,68.00
2022-12-01T15:59:38.954Z,68.50
2022-12-01T16:02:22.567Z,67.76
2022-12-01T16:04:59.319Z,66.70
2022-12-01T16:07:57.181Z,66.07
2022-12-01T16:10:36.617Z,67.22
2022-12-01T16:13:41.027Z,68.24
2022-12-01T16:16:38.675Z,67.99
2022-12-01T16:19:26.409Z,69.05
2022-12-01T16:21:57.950Z,67.03
2022-12-01T16:24:30.656Z,67.28
2022-12-01T16:27:06.633Z,66.81
2022-12-01T16:29:52.363Z,66.68
2022-12-01T16:32:23.223Z,67.13
2022-12-01T16:34:52.468Z,68.08
2022-12-01T16:37:21.474Z,67.61
2022-12-01T16:39:48.263Z,67.09
2022-12-01T16:42:17.030Z,67.94
2022-12-01T16:44:46.956Z,66.71
2022-12-01T16:47:15.237Z,66.67
2022-12-01T16:49:41.888Z,66.40
2022-12-01T16:54:57.226Z,67.52
2022-12-01T16:57:23.920Z,67.27
2022-12-01T16:59:50.514Z,66.60
2022-12-01T17:02:18.117Z,69.46
2022-12-01T17:04:44.785Z,68.25
2022-12-01T17:07:11.392Z,69.42
2022-12-01T17:09:37.999Z,68.02
2022-12-01T17:12:04.864Z,67.65
2022-12-01T17:14:31.517Z,67.15
2022-12-01T17:17:00.824Z,67.61
2022-12-01T17:19:27.533Z,67.02
2022-12-01T17:21:55.900Z,66.82
2022-12-01T17:24:22.498Z,66.36
2022-12-01T17:26:49.055Z,66.12
2022-12-01T17:29:15.629Z,68.00
2022-12-01T17:31:42.327Z,68.13
2022-12-01T17:34:08.964Z,67.13
2022-12-01T17:36:35.579Z,69.35
2022-12-01T17:39:02.159Z,68.12
2022-12-01T17:41:32.507Z,67.44
2022-12-01T17:44:02.476Z,66.92
2022-12-01T17:46:30.128Z,67.54
2022-12-01T17:48:56.965Z,69.66
2022-12-01T17:51:23.569Z,69.98
2022-12-01T17:53:50.233Z,68.38
2022-12-01T17:56:17.443Z,68.79
2022-12-01T17:58:44.230Z,69.79
2022-12-01T18:01:19.306Z,68.70
2022-12-01T18:03:46.719Z,69.22
2022-12-01T18:06:14.967Z,67.20
2022-12-01T18:08:42.507Z,67.23
2022-12-01T18:11:12.592Z,67.21
2022-12-01T18:13:41.914Z,67.42
2022-12-01T18:16:20.165Z,67.82
2022-12-01T18:18:47.101Z,67.26
2022-12-01T18:21:15.699Z,67.57
2022-12-01T18:23:43.165Z,67.30
2022-12-01T18:26:15.787Z,66.82
2022-12-01T18:28:43.638Z,66.88
2022-12-01T18:31:16.239Z,67.97
2022-12-01T18:33:44.263Z,68.22
2022-12-01T18:36:20.387Z,66.40
2022-12-01T18:38:47.274Z,66.86
2022-12-01T18:41:15.070Z,66.49
2022-12-01T18:43:42.014Z,66.92
2022-12-01T18:46:09.120Z,69.03
2022-12-01T18:48:35.866Z,66.97
2022-12-01T18:51:05.139Z,67.10
2022-12-01T18:53:32.581Z,68.44
2022-12-01T18:56:04.373Z,68.90
2022-12-01T18:58:31.834Z,66.88
2022-12-01T19:00:59.262Z,66.32
2022-12-01T19:03:29.413Z,66.44
2022-12-01T19:05:56.074Z,66.78
2022-12-01T19:08:22.966Z,67.08
2022-12-01T19:11:04.074Z,67.15
2022-12-01T19:13:32.063Z,67.26
2022-12-01T19:15:58.909Z,66.85
2022-12-01T19:18:25.552Z,66.98
2022-12-01T19:20:52.688Z,66.19
2022-12-01T19:23:19.595Z,66.77
2022-12-01T19:25:46.207Z,66.52
2022-12-01T19:28:12.875Z,66.37
2022-12-01T19:30:44.017Z,67.50
2022-12-01T19:33:15.552Z,67.72
2022-12-01T19:35:42.199Z,66.38
2022-12-01T19:38:10.106Z,67.15
2022-12-01T19:40:38.583Z,66.44
2022-12-01T19:43:05.512Z,66.50
2022-12-01T19:45:33.347Z,66.49
2022-12-01T19:48:00.003Z,66.78
2022-12-01T19:50:26.586Z,65.99
2022-12-01T19:52:53.248Z,66.50
2022-12-01T19:55:19.868Z,66.02
2022-12-01T19:57:51.416Z,65.59
2022-12-01T20:00:18.728Z,66.10
2022-12-01T20:02:45.436Z,66.26
2022-12-01T20:05:12.050Z,65.98
2022-12-01T20:07:38.670Z,66.22
2022-12-01T20:10:06.125Z,66.32
2022-12-01T20:12:34.864Z,65.99
2022-12-01T20:15:01.658Z,66.13
2022-12-01T20:17:28.356Z,66.84
2022-12-01T20:19:54.950Z,66.37
2022-12-01T20:22:21.585Z,66.31
2022-12-01T20:24:48.453Z,65.52
2022-12-01T20:27:15.343Z,65.97
2022-12-01T20:29:41.935Z,65.45
2022-12-01T20:32:08.603Z,68.59
2022-12-01T20:34:36.257Z,67.06
2022-12-01T20:37:04.427Z,67.76
2022-12-01T20:39:33.213Z,67.19
2022-12-01T20:41:59.973Z,66.96
2022-12-01T20:44:27.048Z,67.18
2022-12-01T20:46:53.673Z,66.95
2022-12-01T20:49:20.371Z,66.17
2022-12-01T20:51:47.399Z,65.64
2022-12-01T20:54:31.245Z,66.47
2022-12-01T20:56:58.375Z,66.51
2022-12-01T20:59:25.012Z,66.44
2022-12-01T21:01:51.588Z,67.14
2022-12-01T21:04:18.187Z,67.92
2022-12-01T21:06:44.998Z,68.15
2022-12-01T21:09:13.116Z,66.70
2022-12-01T21:12:06.963Z,66.85
2022-12-01T21:14:42.062Z,66.07
2022-12-01T21:17:21.408Z,66.67
2022-12-01T21:20:01.240Z,66.51
2022-12-01T21:22:27.841Z,65.99
2022-12-01T21:25:03.258Z,66.66
2022-12-01T21:27:29.924Z,66.65
2022-12-01T21:29:56.932Z,66.04
2022-12-01T21:37:33.287Z,65.91
2022-12-01T21:40:00.498Z,65.44
2022-12-01T21:42:30.440Z,65.20
2022-12-01T21:44:57.572Z,65.19
2022-12-01T21:47:26.963Z,66.58
2022-12-01T21:49:57.222Z,65.72
2022-12-01T21:52:40.038Z,66.72
2022-12-01T21:55:15.791Z,65.85
2022-12-01T21:57:45.530Z,65.17
2022-12-01T22:00:24.568Z,66.43
2022-12-01T22:03:02.612Z,65.84
2022-12-01T22:05:29.239Z,65.50
2022-12-01T22:08:07.868Z,67.19
2022-12-01T22:11:01.336Z,67.71
2022-12-01T22:13:44.524Z,67.22
2022-12-01T22:16:34.329Z,70.08
2022-12-01T22:19:14.178Z,67.98
2022-12-01T22:21:44.746Z,67.43
2022-12-01T22:24:23.361Z,68.70
2022-12-01T22:27:05.903Z,68.47
2022-12-01T22:29:39.408Z,67.45
2022-12-01T22:32:11.652Z,67.64
2022-12-01T22:34:39.524Z,67.77
2022-12-01T22:37:35.633Z,69.22
2022-12-01T22:40:22.241Z,70.33
2022-12-01T22:42:48.855Z,68.30
2022-12-01T22:45:23.255Z,69.34
2022-12-01T22:47:50.038Z,68.56
2022-12-01T22:50:26.762Z,68.92
2022-12-01T22:52:59.101Z,67.42
2022-12-01T22:55:25.659Z,67.81
2022-12-01T22:57:52.408Z,67.83
2022-12-01T23:00:22.175Z,68.89
2022-12-01T23:02:49.741Z,67.92
2022-12-01T23:05:29.179Z,67.24
2022-12-01T23:07:57.142Z,66.69
2022-12-01T23:10:34.041Z,66.85
2022-12-01T23:13:08.926Z,67.04
2022-12-01T23:15:39.385Z,68.79
2022-12-01T23:18:14.327Z,68.13
2022-12-01T23:20:42.851Z,67.66
2022-12-01T23:23:18.662Z,67.25
2022-12-01T23:25:46.690Z,68.16
2022-12-01T23:28:14.427Z,68.67
2022-12-01T23:30:43.429Z,68.51
2022-12-01T23:33:21.762Z,67.87
2022-12-01T23:35:53.778Z,68.74
2022-12-01T23:38:23.478Z,67.80
2022-12-01T23:40:52.528Z,68.55
2022-12-01T23:43:22.968Z,67.84
2022-12-01T23:45:58.382Z,67.83
2022-12-01T23:48:31.256Z,68.32
2022-12-01T23:50:58.003Z,67.78
2022-12-01T23:53:31.382Z,67.87
2022-12-01T23:56:05.650Z,66.65
2022-12-01T23:58:32.260Z,67.83
